Farmington, UT (84025)

8:00 PM MDT on August 31, 2016 (GMT -0600)
Hill Air Force Base | | Change Station
Active Advisory: Fire Weather Warning Active Notice: Record Report

Elev 4787 ft 41.12 °N, 111.97 °W | Updated 2 minutes ago

Mostly Cloudy
Mostly Cloudy
86 °F
Feels Like 86 °F
N
4
Wind Variable Wind from ENE

Today
High -- | Low -- °F
--% Chance of Precip.
Yesterday
High -- | Low -- °F
Precip. -- in
Pressure 29.82 in
Visibility 10.0 miles
Clouds Mostly Cloudy 17000 ft
Dew Point 36 °F
Humidity 16%
Rainfall 0.00 in
Snow Depth Not available.
6:53 AM 8:00 PM
Waning Crescent, 0% visible
METAR KHIF 010158Z AUTO 07003KT 10SM BKN170 30/02 A3001 RMK AO2 SLP098 T03030020
Pressure 29.82 in
Visibility 10.0 miles
Clouds Mostly Cloudy 17000 ft
Dew Point 36 °F
Humidity 16%
Rainfall 0.00 in
Snow Depth Not available.
6:53 AM 8:00 PM
Waning Crescent, 0% visible
METAR KHIF 010158Z AUTO 07003KT 10SM BKN170 30/02 A3001 RMK AO2 SLP098 T03030020

10-Day Weather Forecast

Almanac

Astronomy

Aug. 31, 2016 Rise Set
Actual Time
Civil Twilight
Nautical Twilight
Astronomical Twilight
Moon
Length of Visible Light
Length of Day
Tomorrow will be .
, % of the Moon is Illuminated

Today's Extremes

State Highs State Lows

Community

WunderPhotos

Upload Photos

1,936,266 photos uploaded!

WunderBlog® & News

Nearby

Air Quality

  Air Quality AQ Index Pollutant
Not available.

Snow Depth

Station Depth Elevation

Earthquake Activity

City Distance Mag. Time & Date
Minimum magnitude displayed is 2.5.

Coastal Water Temperatures

Place Temperature

Stations

Nearby Weather Stations

Station Location Temp. Windchill Dew Point Humidity Wind Precip. Elev Updated Type
                   

Watches & Warnings

Fire Weather Warning
Issued: 12:09 PM MDT Aug. 31, 2016 – National Weather Service

... Red flag warning remains in effect from 6 am Thursday to 10 PM
MDT Friday for thunderstorms after a prolonged dry period for
fire weather zones 479 and 480...

* affected area... fire weather zone 479 Wasatch mountains and
fire weather zone 480 Uinta Mountains.

* Outflow winds... greater than 40 mph possible.

* Relative humidity... 13 to 15 percent below 7000 feet. Above 15
percent elevations above 7000 feet.

* Thunderstorms... scattered thunderstorms with insignificant
rainfall and fast storm motions will develop on Thursday...
then trend more widely scattered in nature on Friday.

* Impacts... the combination of thunderstorms with insignificant
rainfall after a prolonged dry period and gusty outflow winds
may create to the potential for new fire starts and rapid fire
growth.

Precautionary/preparedness actions...

A red flag warning means that critical fire weather conditions
are forecast to occur with high confidence. A combination of
strong microburst winds... and warm temperatures can contribute to
extreme fire behavior.